createdAt,value
2022-07-25T00:00:03.098Z,97.76
2022-07-25T00:01:03.092Z,97.57
2022-07-25T00:02:03.132Z,97.57
2022-07-25T00:03:03.058Z,97.67
2022-07-25T00:04:03.567Z,96.80
2022-07-25T00:05:03.190Z,98.25
2022-07-25T00:06:03.026Z,97.96
2022-07-25T00:07:03.010Z,97.76
2022-07-25T00:08:02.999Z,97.57
2022-07-25T00:09:02.983Z,97.18
2022-07-25T00:10:02.981Z,96.99
2022-07-25T00:11:02.959Z,96.70
2022-07-25T00:12:02.954Z,97.57
2022-07-25T00:13:02.933Z,97.57
2022-07-25T00:14:03.220Z,97.76
2022-07-25T00:15:02.913Z,98.05
2022-07-25T00:16:03.013Z,96.89
2022-07-25T00:17:02.888Z,97.38
2022-07-25T00:18:02.872Z,97.57
2022-07-25T00:19:02.863Z,97.47
2022-07-25T00:20:02.850Z,96.65
2022-07-25T00:21:02.836Z,96.50
2022-07-25T00:22:02.825Z,96.46
2022-07-25T00:23:02.812Z,96.75
2022-07-25T00:24:03.179Z,96.75
2022-07-25T00:25:02.783Z,97.33
2022-07-25T00:26:02.777Z,97.81
2022-07-25T00:27:02.782Z,96.94
2022-07-25T00:28:02.750Z,97.04
2022-07-25T00:29:02.738Z,96.55
2022-07-25T00:30:02.721Z,97.04
2022-07-25T00:31:02.768Z,97.28
2022-07-25T00:32:02.701Z,97.67
2022-07-25T00:33:02.687Z,97.67
2022-07-25T00:34:03.093Z,97.77
2022-07-25T00:35:02.660Z,98.05
2022-07-25T00:36:02.646Z,98.44
2022-07-25T00:37:02.636Z,99.41
2022-07-25T00:38:02.622Z,99.74
2022-07-25T00:39:02.608Z,99.99
2022-07-25T00:40:02.597Z,99.99
2022-07-25T00:41:02.586Z,99.99
2022-07-25T00:42:02.572Z,99.99
2022-07-25T00:43:02.563Z,99.99
2022-07-25T00:44:02.876Z,99.99
2022-07-25T00:45:02.536Z,99.99
2022-07-25T00:46:02.572Z,99.99
2022-07-25T00:47:02.507Z,98.93
2022-07-25T00:48:02.498Z,97.47
2022-07-25T00:49:02.609Z,97.18
2022-07-25T00:50:02.468Z,96.80
2022-07-25T00:51:02.456Z,97.09
2022-07-25T00:52:02.445Z,97.18
2022-07-25T00:53:02.432Z,96.70
2022-07-25T00:54:02.674Z,96.70
2022-07-25T00:55:02.407Z,96.41
2022-07-25T00:56:02.396Z,96.60
2022-07-25T00:57:02.405Z,96.99
2022-07-25T00:58:02.379Z,96.22
2022-07-25T00:59:02.364Z,95.64
2022-07-25T01:00:02.343Z,95.64
2022-07-25T01:01:02.332Z,95.73
2022-07-25T01:02:04.039Z,95.64
2022-07-25T01:03:02.343Z,95.73
2022-07-25T01:04:02.411Z,96.41
2022-07-25T01:05:02.276Z,96.89
2022-07-25T01:06:02.269Z,96.94
2022-07-25T01:07:02.260Z,97.23
2022-07-25T01:08:02.236Z,97.09
2022-07-25T01:09:02.224Z,97.04
2022-07-25T01:10:02.220Z,97.38
2022-07-25T01:11:02.199Z,97.42
2022-07-25T01:12:02.190Z,96.56
2022-07-25T01:13:02.183Z,97.18
2022-07-25T01:14:02.406Z,97.33
2022-07-25T01:15:02.156Z,97.09
2022-07-25T01:16:02.265Z,97.47
2022-07-25T01:17:02.124Z,96.36
2022-07-25T01:18:02.111Z,96.36
2022-07-25T01:19:02.098Z,96.65
2022-07-25T01:20:02.089Z,96.89
2022-07-25T01:21:02.074Z,97.28
2022-07-25T01:22:02.064Z,96.99
2022-07-25T01:23:02.047Z,97.09
2022-07-25T01:24:02.177Z,96.60
2022-07-25T01:25:02.019Z,96.89
2022-07-25T01:26:02.022Z,96.22
2022-07-25T01:27:01.994Z,95.44
2022-07-25T01:28:01.982Z,96.84
2022-07-25T01:29:01.969Z,96.80
2022-07-25T01:30:01.954Z,96.36
2022-07-25T01:31:02.006Z,96.99
2022-07-25T01:32:01.932Z,96.89
2022-07-25T01:33:06.847Z,96.94
2022-07-25T01:34:01.908Z,96.65
2022-07-25T01:35:01.892Z,96.84
2022-07-25T01:36:01.881Z,96.94
2022-07-25T01:37:01.865Z,97.14
2022-07-25T01:38:01.855Z,97.23
2022-07-25T01:39:01.839Z,97.86
2022-07-25T01:40:01.832Z,97.57
2022-07-25T01:41:01.813Z,98.15
2022-07-25T01:42:01.805Z,98.73
2022-07-25T01:43:01.790Z,98.83
2022-07-25T01:44:01.777Z,99.11
2022-07-25T01:45:01.762Z,98.93
2022-07-25T01:46:01.809Z,98.83
2022-07-25T01:47:01.731Z,98.93
2022-07-25T01:48:01.722Z,98.83
2022-07-25T01:49:01.786Z,98.83
2022-07-25T01:50:01.696Z,98.25
2022-07-25T01:51:01.683Z,98.15
2022-07-25T01:52:01.671Z,97.57
2022-07-25T01:53:01.658Z,98.05
2022-07-25T01:54:01.647Z,97.77
2022-07-25T01:55:01.631Z,97.91
2022-07-25T01:56:02.872Z,97.67
2022-07-25T01:57:01.605Z,97.28
2022-07-25T01:58:01.597Z,98.15
2022-07-25T01:59:01.580Z,97.77
2022-07-25T02:00:01.566Z,97.57
2022-07-25T02:01:01.605Z,98.05
2022-07-25T02:02:01.664Z,98.25
2022-07-25T02:03:01.531Z,98.54
2022-07-25T02:04:01.632Z,98.15
2022-07-25T02:05:01.675Z,98.05
2022-07-25T02:06:01.492Z,98.44
2022-07-25T02:07:01.473Z,98.54
2022-07-25T02:08:01.459Z,98.83
2022-07-25T02:09:01.446Z,99.31
2022-07-25T02:10:01.441Z,98.54
2022-07-25T02:11:01.423Z,98.83
2022-07-25T02:12:01.409Z,99.02
2022-07-25T02:13:01.393Z,98.93
2022-07-25T02:14:01.392Z,98.93
2022-07-25T02:15:01.373Z,99.41
2022-07-25T02:16:01.365Z,99.60
2022-07-25T02:17:01.401Z,99.21
2022-07-25T02:18:01.338Z,99.69
2022-07-25T02:19:01.313Z,98.83
2022-07-25T02:20:01.304Z,99.02
2022-07-25T02:21:01.287Z,99.69
2022-07-25T02:22:01.281Z,98.83
2022-07-25T02:23:01.262Z,99.02
2022-07-25T02:24:01.248Z,99.16
2022-07-25T02:25:01.231Z,99.50
2022-07-25T02:26:01.224Z,99.36
2022-07-25T02:27:01.210Z,99.65
2022-07-25T02:28:01.197Z,99.07
2022-07-25T02:29:01.183Z,98.49
2022-07-25T02:30:01.170Z,99.07
2022-07-25T02:31:01.244Z,99.26
2022-07-25T02:32:01.140Z,99.41
2022-07-25T02:33:01.130Z,99.41
2022-07-25T02:34:01.123Z,99.41
2022-07-25T02:35:01.105Z,98.73
2022-07-25T02:36:01.098Z,98.63
2022-07-25T02:37:01.081Z,98.73
2022-07-25T02:38:01.060Z,98.68
2022-07-25T02:39:01.053Z,98.88
2022-07-25T02:40:01.042Z,99.45
2022-07-25T02:41:01.024Z,99.36
2022-07-25T02:42:01.011Z,99.45
2022-07-25T02:43:00.996Z,99.99
2022-07-25T02:44:00.985Z,99.74
2022-07-25T02:45:00.968Z,99.60
2022-07-25T02:46:01.018Z,98.83
2022-07-25T02:47:00.941Z,99.02
2022-07-25T02:48:00.940Z,99.26
2022-07-25T02:49:00.957Z,99.99
2022-07-25T02:50:00.907Z,99.99
2022-07-25T02:51:00.889Z,99.99
2022-07-25T02:52:00.882Z,99.99
2022-07-25T02:53:00.866Z,99.99
2022-07-25T02:54:00.848Z,99.99
2022-07-25T02:55:02.216Z,99.99
2022-07-25T02:56:00.821Z,99.89
2022-07-25T02:57:00.811Z,99.99
2022-07-25T02:58:00.798Z,99.21
2022-07-25T02:59:00.786Z,99.60
2022-07-25T03:00:00.776Z,99.60
2022-07-25T03:01:00.819Z,99.41
2022-07-25T03:02:00.744Z,98.54
2022-07-25T03:03:00.735Z,98.35
2022-07-25T03:04:00.869Z,98.00
2022-07-25T03:05:00.704Z,98.44
2022-07-25T03:06:00.687Z,98.88
2022-07-25T03:07:00.673Z,99.84
2022-07-25T03:08:00.663Z,99.36
2022-07-25T03:09:00.650Z,99.99
2022-07-25T03:10:00.635Z,99.84
2022-07-25T03:11:00.620Z,99.99
2022-07-25T03:12:00.614Z,99.99
2022-07-25T03:13:00.598Z,99.99
2022-07-25T03:14:00.583Z,99.99
2022-07-25T03:15:00.570Z,99.99
2022-07-25T03:16:00.553Z,99.99
2022-07-25T03:17:00.598Z,99.99
2022-07-25T03:18:00.531Z,99.99
2022-07-25T03:19:00.520Z,99.99
2022-07-25T03:20:00.509Z,99.99
2022-07-25T03:21:00.493Z,99.99
2022-07-25T03:22:00.480Z,99.99
2022-07-25T03:23:00.463Z,99.99
2022-07-25T03:24:00.449Z,99.99
2022-07-25T03:25:00.437Z,99.99
2022-07-25T03:26:00.422Z,99.99
2022-07-25T03:27:00.412Z,99.99
2022-07-25T03:28:00.396Z,99.99
2022-07-25T03:29:00.386Z,99.99
2022-07-25T03:30:00.365Z,99.99
2022-07-25T03:31:00.354Z,99.99
2022-07-25T03:32:00.434Z,99.99
2022-07-25T03:33:00.326Z,99.99
2022-07-25T03:34:00.311Z,99.99
2022-07-25T03:35:00.297Z,99.99
2022-07-25T03:36:00.283Z,99.99
2022-07-25T03:37:00.273Z,99.99
2022-07-25T03:38:00.260Z,99.99
2022-07-25T03:39:00.247Z,99.99
2022-07-25T03:40:00.234Z,99.99
2022-07-25T03:41:00.219Z,99.99
2022-07-25T03:42:00.208Z,99.99
2022-07-25T03:43:00.194Z,99.99
2022-07-25T03:44:00.180Z,99.99
2022-07-25T03:45:00.166Z,99.99
2022-07-25T03:46:00.260Z,99.99
2022-07-25T03:47:00.139Z,99.99
2022-07-25T03:48:00.132Z,99.99
2022-07-25T03:49:00.229Z,99.99
2022-07-25T03:50:00.131Z,99.99
2022-07-25T03:51:04.887Z,99.99
2022-07-25T03:52:00.074Z,99.99
2022-07-25T03:53:00.062Z,99.99
2022-07-25T03:54:00.043Z,99.99
2022-07-25T03:55:00.045Z,99.99
2022-07-25T03:56:00.014Z,99.99
2022-07-25T03:57:00.005Z,99.99
2022-07-25T03:57:59.989Z,99.99
2022-07-25T03:58:59.977Z,99.99
2022-07-25T03:59:59.964Z,99.99
2022-07-25T04:01:00.066Z,99.99
2022-07-25T04:02:00.011Z,99.99
2022-07-25T04:02:59.922Z,99.99
2022-07-25T04:03:59.908Z,99.99
2022-07-25T04:04:59.900Z,99.99
2022-07-25T04:05:59.883Z,99.99
2022-07-25T04:06:59.866Z,99.99
2022-07-25T04:07:59.909Z,99.99
2022-07-25T04:08:59.838Z,99.99
2022-07-25T04:09:59.828Z,99.99
2022-07-25T04:10:59.812Z,99.99
2022-07-25T04:11:59.809Z,99.99
2022-07-25T04:12:59.785Z,99.99
2022-07-25T04:13:59.773Z,99.99
2022-07-25T04:14:59.761Z,99.99
2022-07-25T04:15:59.746Z,99.99
2022-07-25T04:16:59.800Z,99.99
2022-07-25T04:17:59.720Z,99.99
2022-07-25T04:19:01.120Z,99.99
2022-07-25T04:19:59.689Z,99.99
2022-07-25T04:20:59.675Z,99.99
2022-07-25T04:21:59.673Z,99.99
2022-07-25T04:22:59.652Z,99.99
2022-07-25T04:23:59.638Z,99.99
2022-07-25T04:24:59.623Z,99.99
2022-07-25T04:25:59.608Z,99.55
2022-07-25T04:26:59.595Z,98.68
2022-07-25T04:27:59.589Z,98.78
2022-07-25T04:28:59.572Z,98.78
2022-07-25T04:29:59.557Z,99.84
2022-07-25T04:30:59.542Z,98.58
2022-07-25T04:31:59.673Z,98.88
2022-07-25T04:32:59.521Z,98.78
2022-07-25T04:33:59.513Z,98.73
2022-07-25T04:34:59.486Z,98.44
2022-07-25T04:35:59.473Z,98.25
2022-07-25T04:36:59.458Z,98.44
2022-07-25T04:37:59.445Z,98.63
2022-07-25T04:38:59.435Z,99.21
2022-07-25T04:39:59.419Z,98.73
2022-07-25T04:40:59.406Z,98.00
2022-07-25T04:41:59.400Z,97.96
2022-07-25T04:42:59.377Z,98.05
2022-07-25T04:43:59.366Z,97.96
2022-07-25T04:44:59.354Z,98.15
2022-07-25T04:45:59.392Z,98.73
2022-07-25T04:46:59.325Z,98.25
2022-07-25T04:47:59.312Z,97.19
2022-07-25T04:48:59.368Z,98.44
2022-07-25T04:49:59.288Z,98.05
2022-07-25T04:50:59.278Z,97.47
2022-07-25T04:51:59.255Z,97.42
2022-07-25T04:52:59.251Z,97.62
2022-07-25T04:53:59.235Z,97.28
2022-07-25T04:54:59.218Z,96.94
2022-07-25T04:55:59.204Z,97.19
2022-07-25T04:56:59.194Z,97.04
2022-07-25T04:57:59.179Z,97.09
2022-07-25T04:59:04.662Z,97.28
2022-07-25T04:59:59.155Z,97.33
2022-07-25T05:00:59.216Z,96.94
2022-07-25T05:01:59.188Z,97.09
2022-07-25T05:02:59.115Z,97.24
2022-07-25T05:03:59.094Z,97.24
2022-07-25T05:04:59.079Z,96.66
2022-07-25T05:05:59.068Z,96.46
2022-07-25T05:06:59.059Z,96.75
2022-07-25T05:07:59.042Z,96.36
2022-07-25T05:08:59.036Z,96.26
2022-07-25T05:09:59.016Z,96.66
2022-07-25T05:10:59.005Z,97.24
2022-07-25T05:11:58.989Z,97.62
2022-07-25T05:12:58.979Z,97.62
2022-07-25T05:13:58.963Z,96.66
2022-07-25T05:14:58.947Z,97.14
2022-07-25T05:15:58.947Z,97.42
2022-07-25T05:16:58.928Z,96.94
2022-07-25T05:17:58.912Z,96.46
2022-07-25T05:18:58.897Z,96.70
2022-07-25T05:19:58.878Z,96.99
2022-07-25T05:20:58.867Z,96.41
2022-07-25T05:21:58.856Z,95.93
2022-07-25T05:22:58.843Z,95.83
2022-07-25T05:23:58.828Z,96.03
2022-07-25T05:24:58.819Z,95.54
2022-07-25T05:25:58.807Z,95.88
2022-07-25T05:26:58.788Z,96.17
2022-07-25T05:27:58.773Z,95.83
2022-07-25T05:28:58.760Z,96.70
2022-07-25T05:29:58.760Z,96.08
2022-07-25T05:30:58.735Z,95.88
2022-07-25T05:31:58.799Z,96.22
2022-07-25T05:32:58.705Z,96.41
2022-07-25T05:33:58.695Z,96.89
2022-07-25T05:34:58.677Z,96.51
2022-07-25T05:35:58.666Z,96.41
2022-07-25T05:36:58.659Z,96.80
2022-07-25T05:37:58.644Z,96.41
2022-07-25T05:38:58.628Z,96.12
2022-07-25T05:39:58.613Z,95.83
2022-07-25T05:40:58.613Z,95.83
2022-07-25T05:41:58.584Z,95.15
2022-07-25T05:43:02.927Z,95.54
2022-07-25T05:43:58.565Z,95.35
2022-07-25T05:44:58.549Z,95.73
2022-07-25T05:45:58.535Z,95.35
2022-07-25T05:46:58.626Z,95.45
2022-07-25T05:47:58.505Z,95.59
2022-07-25T05:48:58.563Z,95.59
2022-07-25T05:49:58.487Z,95.30
2022-07-25T05:50:58.474Z,94.96
2022-07-25T05:51:58.458Z,95.25
2022-07-25T05:52:58.448Z,95.45
2022-07-25T05:53:58.436Z,95.10
2022-07-25T05:54:58.435Z,94.33
2022-07-25T05:55:58.403Z,95.01
2022-07-25T05:56:58.394Z,94.14
2022-07-25T05:57:58.379Z,94.04
2022-07-25T05:58:58.368Z,93.85
2022-07-25T05:59:58.353Z,92.69
2022-07-25T06:00:58.350Z,93.95
2022-07-25T06:01:58.514Z,94.04
2022-07-25T06:02:58.442Z,93.46
2022-07-25T06:03:58.306Z,93.56
2022-07-25T06:04:58.290Z,93.70
2022-07-25T06:05:58.276Z,93.32
2022-07-25T06:06:58.271Z,93.60
2022-07-25T06:07:58.251Z,92.83
2022-07-25T06:08:58.239Z,92.93
2022-07-25T06:09:58.228Z,93.02
2022-07-25T06:10:58.218Z,92.35
2022-07-25T06:12:01.047Z,92.54
2022-07-25T06:12:58.184Z,92.40
2022-07-25T06:13:58.172Z,92.00
2022-07-25T06:14:58.156Z,90.94
2022-07-25T06:15:58.207Z,91.04
2022-07-25T06:16:58.135Z,91.52
2022-07-25T06:17:58.125Z,91.42
2022-07-25T06:18:58.111Z,91.33
2022-07-25T06:19:58.097Z,91.08
2022-07-25T06:20:58.088Z,90.56
2022-07-25T06:21:58.076Z,90.70
2022-07-25T06:22:58.057Z,90.70
2022-07-25T06:23:58.045Z,90.21
2022-07-25T06:24:58.041Z,90.41
2022-07-25T06:25:58.018Z,90.31
2022-07-25T06:26:58.013Z,89.44
2022-07-25T06:27:58.002Z,89.53
2022-07-25T06:28:57.983Z,88.85
2022-07-25T06:29:57.973Z,89.15
2022-07-25T06:30:58.148Z,89.58
2022-07-25T06:31:58.026Z,88.90
2022-07-25T06:32:57.941Z,88.90
2022-07-25T06:33:57.919Z,88.71
2022-07-25T06:34:57.912Z,88.13
2022-07-25T06:35:57.902Z,88.13
2022-07-25T06:36:57.884Z,88.03
2022-07-25T06:37:57.872Z,88.13
2022-07-25T06:38:57.863Z,88.71
2022-07-25T06:39:57.844Z,88.03
2022-07-25T06:40:57.841Z,88.32
2022-07-25T06:41:57.818Z,86.87
2022-07-25T06:42:57.814Z,87.26
2022-07-25T06:43:57.798Z,87.78
2022-07-25T06:44:57.787Z,87.78
2022-07-25T06:45:57.772Z,86.82
2022-07-25T06:46:57.888Z,86.62
2022-07-25T06:47:57.751Z,86.23
2022-07-25T06:48:57.867Z,86.82
2022-07-25T06:49:57.728Z,87.40
2022-07-25T06:50:57.712Z,85.99
2022-07-25T06:51:57.697Z,85.30
2022-07-25T06:52:57.694Z,84.92
2022-07-25T06:53:57.677Z,85.11
2022-07-25T06:54:57.671Z,84.92
2022-07-25T06:55:57.651Z,84.82
2022-07-25T06:56:57.638Z,84.24
2022-07-25T06:57:57.627Z,83.47
2022-07-25T06:58:57.624Z,83.22
2022-07-25T06:59:57.613Z,83.75
2022-07-25T07:00:57.680Z,83.22
2022-07-25T07:01:57.581Z,82.82
2022-07-25T07:02:58.148Z,83.22
2022-07-25T07:03:57.559Z,82.28
2022-07-25T07:04:57.543Z,82.09
2022-07-25T07:05:57.537Z,82.77
2022-07-25T07:06:57.524Z,81.41
2022-07-25T07:07:57.510Z,81.26
2022-07-25T07:08:57.504Z,79.71
2022-07-25T07:09:57.491Z,81.06
2022-07-25T07:10:57.480Z,80.09
2022-07-25T07:11:57.465Z,81.10
2022-07-25T07:12:57.463Z,80.62
2022-07-25T07:13:57.443Z,79.64
2022-07-25T07:14:57.434Z,77.90
2022-07-25T07:15:57.450Z,76.92
2022-07-25T07:16:57.414Z,77.02
2022-07-25T07:17:57.398Z,77.70
2022-07-25T07:18:57.386Z,76.73
2022-07-25T07:19:57.372Z,77.51
2022-07-25T07:20:57.360Z,76.34
2022-07-25T07:21:57.353Z,76.44
2022-07-25T07:22:57.341Z,76.57
2022-07-25T07:23:57.332Z,76.44
2022-07-25T07:24:57.327Z,77.15
2022-07-25T07:25:57.313Z,76.18
2022-07-25T07:26:57.303Z,75.60
2022-07-25T07:27:57.289Z,75.51
2022-07-25T07:28:57.278Z,75.12
2022-07-25T07:29:57.272Z,74.34
2022-07-25T07:31:57.324Z,74.54
2022-07-25T07:32:57.239Z,74.48
2022-07-25T07:33:57.226Z,73.99
2022-07-25T07:34:57.215Z,74.18
2022-07-25T07:35:57.332Z,73.89
2022-07-25T07:36:57.200Z,74.44
2022-07-25T07:37:57.189Z,74.96
2022-07-25T07:38:57.178Z,75.54
2022-07-25T07:39:57.168Z,74.67
2022-07-25T07:40:57.158Z,75.64
2022-07-25T07:41:57.143Z,75.84
2022-07-25T07:42:57.133Z,74.08
2022-07-25T07:43:57.120Z,74.57
2022-07-25T07:44:57.129Z,73.93
2022-07-25T07:45:57.099Z,74.08
2022-07-25T07:46:57.223Z,73.21
2022-07-25T07:47:57.115Z,73.60
2022-07-25T07:48:57.216Z,74.48
2022-07-25T07:49:57.056Z,74.28
2022-07-25T07:50:57.050Z,73.89
2022-07-25T07:51:57.041Z,73.89
2022-07-25T07:52:57.034Z,73.83
2022-07-25T07:53:57.019Z,73.54
2022-07-25T07:54:59.398Z,74.61
2022-07-25T07:55:56.997Z,74.51
2022-07-25T07:56:56.988Z,73.83
2022-07-25T07:57:56.974Z,74.51
2022-07-25T07:58:56.967Z,74.61
2022-07-25T07:59:56.955Z,73.44
2022-07-25T08:00:56.943Z,73.24
2022-07-25T08:01:57.100Z,73.34
2022-07-25T08:02:57.109Z,72.96
2022-07-25T08:03:56.918Z,72.76
2022-07-25T08:04:56.908Z,72.37
2022-07-25T08:05:56.899Z,72.56
2022-07-25T08:06:56.886Z,72.56
2022-07-25T08:07:56.873Z,72.41
2022-07-25T08:08:56.864Z,72.70
2022-07-25T08:09:56.858Z,72.02
2022-07-25T08:10:58.969Z,71.72
2022-07-25T08:11:56.836Z,71.14
2022-07-25T08:12:56.822Z,70.85
2022-07-25T08:13:56.815Z,70.95
2022-07-25T08:14:56.803Z,70.95
2022-07-25T08:15:56.876Z,71.04
2022-07-25T08:16:56.786Z,71.04
2022-07-25T08:17:56.770Z,71.56
2022-07-25T08:18:56.767Z,70.78
2022-07-25T08:20:05.521Z,70.88
2022-07-25T08:20:56.741Z,71.56
2022-07-25T08:21:56.732Z,70.98
2022-07-25T08:22:56.896Z,70.88
2022-07-25T08:23:56.710Z,70.40
2022-07-25T08:24:56.700Z,69.91
2022-07-25T08:25:56.701Z,70.10
2022-07-25T08:26:56.681Z,71.08
2022-07-25T08:27:56.670Z,69.81
2022-07-25T08:29:17.518Z,68.64
2022-07-25T08:29:56.657Z,69.62
2022-07-25T08:30:56.683Z,69.81
2022-07-25T08:31:56.631Z,69.48
2022-07-25T08:32:56.620Z,69.97
2022-07-25T08:33:56.614Z,70.20
2022-07-25T08:34:56.601Z,69.87
2022-07-25T08:35:56.596Z,70.56
2022-07-25T08:36:56.585Z,69.87
2022-07-25T08:37:56.574Z,69.97
2022-07-25T08:38:56.564Z,69.10
2022-07-25T08:39:56.557Z,69.97
2022-07-25T08:40:56.553Z,69.68
2022-07-25T08:41:56.532Z,69.68
2022-07-25T08:42:56.529Z,70.65
2022-07-25T08:43:56.513Z,71.04
2022-07-25T08:44:56.504Z,70.85
2022-07-25T08:45:56.574Z,71.23
2022-07-25T08:46:56.593Z,70.75
2022-07-25T08:47:56.478Z,70.85
2022-07-25T08:48:56.533Z,69.58
2022-07-25T08:50:00.848Z,69.58
2022-07-25T08:50:56.444Z,69.58
2022-07-25T08:51:56.429Z,69.39
2022-07-25T08:53:16.201Z,69.48
2022-07-25T08:53:56.410Z,69.58
2022-07-25T08:54:56.403Z,70.65
2022-07-25T08:55:56.385Z,70.46
2022-07-25T08:56:56.390Z,70.17
2022-07-25T08:57:56.380Z,69.68
2022-07-25T08:58:56.363Z,69.87
2022-07-25T08:59:56.350Z,69.58
2022-07-25T09:00:56.342Z,69.71
2022-07-25T09:01:56.399Z,69.81
2022-07-25T09:02:56.411Z,69.52
2022-07-25T09:03:56.305Z,69.42
2022-07-25T09:04:56.298Z,69.13
2022-07-25T09:05:56.287Z,69.52
2022-07-25T09:06:56.283Z,68.55
2022-07-25T09:07:56.268Z,68.64
2022-07-25T09:08:56.267Z,68.77
2022-07-25T09:09:56.251Z,68.29
2022-07-25T09:10:56.243Z,68.29
2022-07-25T09:11:56.237Z,67.60
2022-07-25T09:12:56.222Z,66.96
2022-07-25T09:13:56.228Z,66.47
2022-07-25T09:14:56.201Z,66.66
2022-07-25T09:15:56.248Z,67.15
2022-07-25T09:16:56.185Z,67.18
2022-07-25T09:17:56.172Z,67.28
2022-07-25T09:18:56.165Z,66.89
2022-07-25T09:19:56.151Z,66.11
2022-07-25T09:20:56.148Z,65.49
2022-07-25T09:21:56.134Z,63.96
2022-07-25T09:22:56.131Z,63.15
2022-07-25T09:23:56.119Z,61.25
2022-07-25T09:24:56.114Z,61.25
2022-07-25T09:25:56.111Z,60.89
2022-07-25T09:26:56.190Z,60.10
2022-07-25T09:27:56.087Z,59.42
2022-07-25T09:28:56.088Z,59.32
2022-07-25T09:29:56.083Z,59.42
2022-07-25T09:30:56.167Z,59.88
2022-07-25T09:31:56.067Z,60.63
2022-07-25T09:32:56.071Z,60.14
2022-07-25T09:33:56.053Z,59.92
2022-07-25T09:34:56.049Z,60.24
2022-07-25T09:35:56.046Z,60.21
2022-07-25T09:36:56.036Z,60.70
2022-07-25T09:37:56.040Z,60.53
2022-07-25T09:38:56.033Z,59.69
2022-07-25T09:39:56.026Z,59.61
2022-07-25T09:40:56.021Z,59.32
2022-07-25T09:41:56.010Z,58.37
2022-07-25T09:42:56.006Z,58.17
2022-07-25T09:43:55.997Z,58.15
2022-07-25T09:44:55.991Z,59.27
2022-07-25T09:45:56.022Z,59.75
2022-07-25T09:46:55.982Z,59.52
2022-07-25T09:47:55.974Z,58.59
2022-07-25T09:48:56.031Z,57.81
2022-07-25T09:49:55.966Z,57.54
2022-07-25T09:50:55.959Z,57.81
2022-07-25T09:51:55.950Z,58.37
2022-07-25T09:52:55.948Z,58.07
2022-07-25T09:53:55.942Z,58.04
2022-07-25T09:54:55.941Z,56.13
2022-07-25T09:55:55.931Z,55.74
2022-07-25T09:56:55.927Z,55.18
2022-07-25T09:57:55.939Z,54.91
2022-07-25T09:58:55.917Z,54.60
2022-07-25T09:59:55.911Z,53.80
2022-07-25T10:00:55.906Z,53.85
2022-07-25T10:01:56.006Z,53.54
2022-07-25T10:02:55.972Z,52.89
2022-07-25T10:03:55.893Z,54.12
2022-07-25T10:04:55.888Z,53.73
2022-07-25T10:05:55.879Z,53.58
2022-07-25T10:06:55.884Z,52.68
2022-07-25T10:07:55.870Z,51.72
2022-07-25T10:08:55.867Z,53.50
2022-07-25T10:09:55.860Z,54.00
2022-07-25T10:10:55.858Z,54.58
2022-07-25T10:11:55.854Z,54.83
2022-07-25T10:12:55.857Z,55.15
2022-07-25T10:13:55.842Z,55.41
2022-07-25T10:14:55.838Z,55.91
2022-07-25T10:15:55.840Z,56.05
2022-07-25T10:16:55.947Z,57.03
2022-07-25T10:17:55.822Z,57.22
2022-07-25T10:18:55.821Z,57.35
2022-07-25T10:19:58.870Z,56.07
2022-07-25T10:20:55.808Z,56.73
2022-07-25T10:21:55.811Z,57.08
2022-07-25T10:22:57.309Z,55.99
2022-07-25T10:23:55.795Z,55.30
2022-07-25T10:24:55.783Z,55.32
2022-07-25T10:25:55.779Z,56.30
2022-07-25T10:26:55.772Z,56.69
2022-07-25T10:27:55.766Z,56.57
2022-07-25T10:28:55.761Z,57.12
2022-07-25T10:29:55.757Z,57.32
2022-07-25T10:30:55.831Z,57.35
2022-07-25T10:31:55.742Z,57.35
2022-07-25T10:32:55.743Z,57.06
2022-07-25T10:33:55.734Z,57.08
2022-07-25T10:34:55.723Z,57.08
2022-07-25T10:35:55.721Z,56.83
2022-07-25T10:36:55.715Z,57.59
2022-07-25T10:37:55.710Z,58.76
2022-07-25T10:38:55.702Z,58.93
2022-07-25T10:39:55.695Z,59.42
2022-07-25T10:40:55.689Z,60.17
2022-07-25T10:41:55.683Z,59.69
2022-07-25T10:42:55.675Z,60.44
2022-07-25T10:43:55.668Z,61.29
2022-07-25T10:44:55.663Z,61.48
2022-07-25T10:45:55.692Z,61.68
2022-07-25T10:46:55.647Z,61.38
2022-07-25T10:47:55.650Z,61.19
2022-07-25T10:48:55.722Z,61.19
2022-07-25T10:50:14.554Z,61.38
2022-07-25T10:50:56.758Z,61.41
2022-07-25T10:51:55.616Z,62.00
2022-07-25T10:52:55.607Z,61.51
2022-07-25T10:53:55.597Z,61.51
2022-07-25T10:54:55.592Z,61.38
2022-07-25T10:56:05.425Z,61.87
2022-07-25T10:56:55.597Z,62.56
2022-07-25T10:58:16.633Z,63.60
2022-07-25T10:58:55.564Z,63.12
2022-07-25T10:59:55.552Z,63.31
2022-07-25T11:00:55.598Z,63.12
2022-07-25T11:01:55.537Z,63.21
2022-07-25T11:02:55.609Z,63.31
2022-07-25T11:03:55.520Z,62.89
2022-07-25T11:04:55.512Z,63.87
2022-07-25T11:05:55.510Z,63.48
2022-07-25T11:06:55.497Z,63.96
2022-07-25T11:08:20.183Z,63.28
2022-07-25T11:08:55.481Z,64.26
2022-07-25T11:09:55.473Z,64.09
2022-07-25T11:10:55.468Z,63.41
2022-07-25T11:11:55.456Z,63.80
2022-07-25T11:12:55.453Z,63.54
2022-07-25T11:13:55.436Z,62.95
2022-07-25T11:14:55.432Z,62.59
2022-07-25T11:15:55.431Z,62.32
2022-07-25T11:16:55.498Z,61.83
2022-07-25T11:17:55.411Z,61.28
2022-07-25T11:18:55.399Z,60.50
2022-07-25T11:19:55.440Z,60.86
2022-07-25T11:20:55.385Z,61.35
2022-07-25T11:21:55.373Z,61.15
2022-07-25T11:22:55.374Z,61.47
2022-07-25T11:23:55.366Z,61.38
2022-07-25T11:24:55.358Z,61.99
2022-07-25T11:25:55.346Z,59.94
2022-07-25T11:26:55.346Z,60.06
2022-07-25T11:27:55.342Z,60.06
2022-07-25T11:28:55.325Z,59.87
2022-07-25T11:29:55.323Z,60.10
2022-07-25T11:30:55.315Z,59.74
2022-07-25T11:31:55.389Z,60.89
2022-07-25T11:32:55.304Z,60.52
2022-07-25T11:33:55.284Z,60.23
2022-07-25T11:34:55.289Z,59.97
2022-07-25T11:35:55.268Z,59.38
2022-07-25T11:36:55.266Z,59.77
2022-07-25T11:37:55.257Z,60.26
2022-07-25T11:38:55.253Z,59.97
2022-07-25T11:39:56.242Z,60.16
2022-07-25T11:40:55.235Z,60.42
2022-07-25T11:41:55.227Z,60.92
2022-07-25T11:42:55.220Z,60.82
2022-07-25T11:43:55.231Z,61.15
2022-07-25T11:44:55.208Z,61.07
2022-07-25T11:45:55.254Z,59.80
2022-07-25T11:46:55.193Z,59.70
2022-07-25T11:47:55.185Z,59.41
2022-07-25T11:48:55.281Z,59.87
2022-07-25T11:49:55.174Z,59.48
2022-07-25T11:50:55.164Z,60.23
2022-07-25T11:51:55.160Z,61.02
2022-07-25T11:52:55.152Z,61.02
2022-07-25T11:53:55.138Z,60.06
2022-07-25T11:54:55.149Z,60.16
2022-07-25T11:55:55.128Z,60.03
2022-07-25T11:56:55.126Z,61.02
2022-07-25T11:57:55.112Z,61.02
2022-07-25T11:58:55.114Z,60.89
2022-07-25T11:59:55.112Z,61.38
2022-07-25T12:00:55.092Z,61.38
2022-07-25T12:01:55.117Z,61.44
2022-07-25T12:02:55.214Z,61.93
2022-07-25T12:03:55.200Z,62.82
2022-07-25T12:04:55.065Z,62.95
2022-07-25T12:05:55.066Z,61.77
2022-07-25T12:06:55.055Z,61.41
2022-07-25T12:07:55.044Z,61.60
2022-07-25T12:08:55.035Z,61.05
2022-07-25T12:09:55.041Z,61.54
2022-07-25T12:10:55.016Z,61.25
2022-07-25T12:11:55.016Z,61.15
2022-07-25T12:12:55.004Z,61.05
2022-07-25T12:13:54.996Z,61.47
2022-07-25T12:14:54.991Z,61.93
2022-07-25T12:15:54.979Z,61.38
2022-07-25T12:16:55.043Z,61.67
2022-07-25T12:17:54.981Z,60.99
2022-07-25T12:18:54.954Z,60.50
2022-07-25T12:19:54.954Z,60.99
2022-07-25T12:20:54.943Z,61.18
2022-07-25T12:21:54.933Z,61.21
2022-07-25T12:23:54.922Z,60.30
2022-07-25T12:24:54.911Z,59.91
2022-07-25T12:25:54.902Z,60.27
2022-07-25T12:26:54.895Z,60.76
2022-07-25T12:27:54.889Z,60.93
2022-07-25T12:28:54.897Z,60.63
2022-07-25T12:29:54.877Z,60.63
2022-07-25T12:30:56.829Z,61.25
2022-07-25T12:31:55.201Z,61.64
2022-07-25T12:32:54.852Z,61.35
2022-07-25T12:33:54.859Z,61.15
2022-07-25T12:34:54.838Z,61.35
2022-07-25T12:35:54.827Z,60.47
2022-07-25T12:36:54.827Z,61.02
2022-07-25T12:37:54.816Z,60.96
2022-07-25T12:38:54.806Z,60.24
2022-07-25T12:39:54.794Z,61.09
2022-07-25T12:40:54.788Z,60.99
2022-07-25T12:41:54.783Z,61.38
2022-07-25T12:42:54.777Z,60.41
2022-07-25T12:43:54.768Z,60.89
2022-07-25T12:44:54.764Z,60.41
2022-07-25T12:45:54.834Z,60.89
2022-07-25T12:46:54.803Z,61.16
2022-07-25T12:47:54.734Z,61.38
2022-07-25T12:48:54.789Z,61.29
2022-07-25T12:49:54.718Z,60.96
2022-07-25T12:50:54.713Z,61.38
2022-07-25T12:51:58.018Z,61.38
2022-07-25T12:52:54.691Z,61.09
2022-07-25T12:53:54.683Z,61.12